GOOYTNCM

Guest
Details From GOOY - Dakar Leopold Sedar Senghor Intl
To TNCM - St Maarten - Princess Juliana Intl
Flight Number -
Tags generated
Created
Modified
Stats Distance 3,224 nm / 5,971 km
Max Altitude 34,000 ft / 10,363 m
Waypoints 15
Social Downloads 0
Likes 0
Share VATSIM

Download

Looking for another format? Having issues loading an existing format? Contact us
Advertisement - Login to hide

Notes

Basic altitude profile: - Ascent Rate: 2500ft/min - Ascent Speed: 250kts - Cruise Altitude: 35000ft - Cruise Speed: 420kts - Descent Rate: 1500ft/min - Descent Speed: 250kts Options: - Use NATs: yes - Use PACOTS: yes - Use low airways: no - Use high airways: yes

Route

GOOY NARAT UR976 GAMBA 1800N03000W 1700N03500W PAKER UL435 BUTUX L435 FIVZE PISAX A632 TOTEM TNCM

ID Type Via Altitude Latitude Longitude Leg Dist Tot Dist Heading (true) Name
O GOOY APT - 0 ft / 0 m 14.73971˚ -17.49023˚ - 0 nm - Dakar Leopold Sedar Senghor Intl
NARAT FIX - 10,400 ft / 3,170 m 14.94333˚ -18.00000˚ 32 nm 32 nm 293° / 292° -
LUMPO FIX UR976 (AWY-HI) 34,000 ft / 10,363 m 15.68000˚ -20.00139˚ 124 nm 156 nm 291° / 291° -
UGAMA FIX UR976 (AWY-HI) 34,000 ft / 10,363 m 16.28667˚ -21.67000˚ 102 nm 259 nm 291° / 290° -
CVS VOR UR976 (AWY-HI) 34,000 ft / 10,363 m 16.73677˚ -22.95105˚ 78 nm 337 nm 290° / 290° SAL VOR-DME
IREDO FIX UR976 (AWY-HI) 34,000 ft / 10,363 m 17.71833˚ -24.30333˚ 97 nm 435 nm 307° / 307° -
GAMBA FIX UR976 (AWY-HI) 34,000 ft / 10,363 m 18.95333˚ -26.06000˚ 124 nm 559 nm 307° / 306° -
1800N03000W LATLON - 34,000 ft / 10,363 m 18.00000˚ -30.00000˚ 231 nm 791 nm 256° / 255° -
1700N03500W LATLON - 34,000 ft / 10,363 m 17.00000˚ -35.00000˚ 292 nm 1083 nm 259° / 257° -
PAKER FIX - 34,000 ft / 10,363 m 15.33333˚ -40.00000˚ 305 nm 1389 nm 252° / 250° -
BUTUX FIX UL435 (AWY-HI) 34,000 ft / 10,363 m 18.00000˚ -45.38000˚ 348 nm 1737 nm 298° / 297° -
FIVZE FIX L435 (AWY-HI) 34,000 ft / 10,363 m 25.00000˚ -60.00000˚ 917 nm 2655 nm 300° / 294° -
PISAX FIX - 34,000 ft / 10,363 m 23.50000˚ -62.54664˚ 166 nm 2821 nm 238° / 237° -
TOTEM FIX A632 (AWY-HI) 15,000 ft / 4,572 m 18.00000˚ -61.88367˚ 332 nm 3153 nm 173° / 174° -
O TNCM APT - 0 ft / 0 m 18.04089˚ -63.10897˚ 70 nm 3223 nm 272° / 272° St Maarten - Princess Juliana Intl

Altitude Profile

Advertisement - Login to hide

Weather


0- 5 10 15 20 25 30 35+ Temperature / ° C

Clouds and Precipitation
Forecast for 2017-12-17 00:00 UTC. Updated an hour ago

Ground ~20,000 ft ~40,000 ft Winds

GOOY

Details ICAO GOOY (DKR)
Name Dakar Leopold Sedar Senghor Intl
Region Senegal
Timezone Africa/Dakar (UTC+0.0)
Stats Elevation 85 ft / 26 m (AMSL)
Location 14.739711° -17.490226°
Runways 2
Magnetic Variation 7.347° W

METAR

GOOY 161900Z 36010KT 6000 NSC 24/16 Q1015

Decode

TAF

TAF GOOY 161730Z 1618/1724 04013KT 6000 NSC= TAF GBYD 161730Z 1618/1724 02008KT 8000 NSC

Decode

Departure Runways

ID Width Length Bearing (true) Bearing (mag) Surface Threshold Offset Overrun Length
03 98 ft / 30 m 4,921 ft / 1,500 m 22.31° 29.66° Asphalt 0 ft / 0 m 98 ft / 30 m
18 148 ft / 45 m 11,511 ft / 3,509 m 172.57° 179.92° Asphalt 525 ft / 160 m 197 ft / 60 m
21 98 ft / 30 m 4,921 ft / 1,500 m 202.31° 209.66° Asphalt 0 ft / 0 m 1,590 ft / 485 m
36 148 ft / 45 m 11,511 ft / 3,509 m 352.57° 359.92° Asphalt 0 ft / 0 m 197 ft / 60 m

TNCM

Details ICAO TNCM (SXM)
Name St Maarten - Princess Juliana Intl
Region Caribbean Netherlands, Aruba, Curaçao, Sint Maarten
Timezone Unknown (UTC+0.0)
Stats Elevation 12 ft / 4 m (AMSL)
Location 18.040889° -63.108974°
Runways 1
Magnetic Variation 14.325° W

METAR

TNCM 162000Z 06013G23KT 030V100 9999 FEW020 28/21 Q1016 A3001 NOSIG

Decode

TAF

TAF TNCM 161720Z 1618/1718 07014G22KT P6SM VCSH FEW022 SCT040 FM162300 07012KT P6SM SCT020 SCT050 FM170300 06014KT P6SM VCSH SCT018 BKN050 FM171450 08016KT P6SM SCT022 SCT050

Decode

Destination Runways

ID Width Length Bearing (true) Bearing (mag) Surface Threshold Offset Overrun Length
10 148 ft / 45 m 7,464 ft / 2,275 m 81.43° 95.76° Asphalt 0 ft / 0 m 151 ft / 46 m
28 148 ft / 45 m 7,464 ft / 2,275 m 261.44° 275.77° Asphalt 397 ft / 121 m 0 ft / 0 m

Popular Alternatives